createdAt,value
2023-05-25T00:01:24.516Z,13.46
2023-05-25T00:04:10.535Z,13.44
2023-05-25T00:06:55.951Z,13.41
2023-05-25T00:09:42.026Z,13.40
2023-05-25T00:12:27.038Z,13.41
2023-05-25T00:15:12.234Z,13.37
2023-05-25T00:17:57.597Z,13.39
2023-05-25T00:20:44.908Z,13.43
2023-05-25T00:23:30.014Z,13.52
2023-05-25T00:26:15.693Z,13.60
2023-05-25T00:29:01.165Z,13.54
2023-05-25T00:31:46.548Z,13.58
2023-05-25T00:34:31.771Z,13.65
2023-05-25T00:37:17.202Z,13.71
2023-05-25T00:40:04.256Z,13.71
2023-05-25T00:42:49.514Z,13.68
2023-05-25T00:45:34.908Z,13.65
2023-05-25T00:48:20.458Z,13.59
2023-05-25T00:51:06.282Z,13.57
2023-05-25T00:53:51.610Z,13.57
2023-05-25T00:56:40.985Z,13.55
2023-05-25T00:59:35.971Z,13.60
2023-05-25T01:02:24.438Z,13.56
2023-05-25T01:05:12.394Z,13.52
2023-05-25T01:08:02.059Z,13.45
2023-05-25T01:10:49.947Z,13.43
2023-05-25T01:13:38.272Z,13.45
2023-05-25T01:16:28.408Z,13.47
2023-05-25T01:19:14.247Z,13.49
2023-05-25T01:22:10.415Z,13.46
2023-05-25T01:25:02.285Z,13.52
2023-05-25T01:28:09.024Z,13.56
2023-05-25T01:30:56.940Z,13.45
2023-05-25T01:33:44.653Z,13.39
2023-05-25T01:36:30.149Z,13.29
2023-05-25T01:39:15.837Z,13.28
2023-05-25T01:42:01.880Z,13.26
2023-05-25T01:44:47.826Z,13.24
2023-05-25T01:47:37.398Z,13.23
2023-05-25T01:50:34.346Z,13.19
2023-05-25T01:53:23.658Z,13.19
2023-05-25T01:56:11.752Z,13.20
2023-05-25T01:58:59.300Z,13.19
2023-05-25T02:01:46.350Z,13.23
2023-05-25T02:04:31.941Z,13.23
2023-05-25T02:07:17.381Z,13.29
2023-05-25T02:10:03.409Z,13.24
2023-05-25T02:12:48.394Z,13.21
2023-05-25T02:15:34.199Z,13.18
2023-05-25T02:18:19.751Z,13.21
2023-05-25T02:21:05.155Z,13.29
2023-05-25T02:23:50.244Z,13.39
2023-05-25T02:26:36.874Z,13.43
2023-05-25T02:29:22.378Z,13.45
2023-05-25T02:32:07.896Z,13.38
2023-05-25T02:34:52.949Z,13.31
2023-05-25T02:37:39.152Z,13.20
2023-05-25T02:40:24.718Z,13.24
2023-05-25T02:43:10.111Z,13.28
2023-05-25T02:45:55.454Z,13.29
2023-05-25T02:48:42.479Z,13.17
2023-05-25T02:51:28.867Z,13.16
2023-05-25T02:54:14.135Z,13.23
2023-05-25T02:56:59.484Z,13.33
2023-05-25T02:59:44.817Z,13.35
2023-05-25T03:02:30.929Z,13.41
2023-05-25T03:05:17.780Z,13.46
2023-05-25T03:08:02.897Z,13.50
2023-05-25T03:10:48.181Z,13.47
2023-05-25T03:13:33.468Z,13.42
2023-05-25T03:16:18.925Z,13.33
2023-05-25T03:19:05.508Z,13.33
2023-05-25T03:21:51.124Z,13.37
2023-05-25T03:24:36.559Z,13.35
2023-05-25T03:27:21.896Z,13.31
2023-05-25T03:30:07.987Z,13.29
2023-05-25T03:32:53.101Z,13.32
2023-05-25T03:35:38.405Z,13.37
2023-05-25T03:38:23.735Z,13.34
2023-05-25T03:41:08.999Z,13.28
2023-05-25T03:43:54.520Z,13.23
2023-05-25T03:46:40.034Z,13.19
2023-05-25T03:49:25.749Z,13.19
2023-05-25T03:52:11.122Z,13.18
2023-05-25T03:54:56.708Z,13.14
2023-05-25T03:57:42.368Z,13.06
2023-05-25T04:00:27.879Z,13.01
2023-05-25T04:03:13.573Z,13.03
2023-05-25T04:06:00.490Z,13.07
2023-05-25T04:08:45.910Z,13.05
2023-05-25T04:11:31.260Z,12.99
2023-05-25T04:14:16.523Z,13.00
2023-05-25T04:17:01.912Z,13.02
2023-05-25T04:19:47.134Z,13.03
2023-05-25T04:22:33.481Z,13.05
2023-05-25T04:25:22.287Z,13.05
2023-05-25T04:28:08.594Z,13.03
2023-05-25T04:30:57.210Z,13.04
2023-05-25T04:33:42.752Z,13.04
2023-05-25T04:36:28.272Z,13.13
2023-05-25T04:39:13.652Z,13.15
2023-05-25T04:42:01.687Z,13.11
2023-05-25T04:44:47.584Z,13.07
2023-05-25T04:47:32.842Z,13.00
2023-05-25T04:50:18.260Z,13.00
2023-05-25T04:53:03.401Z,13.02
2023-05-25T04:55:52.022Z,13.01
2023-05-25T04:58:37.120Z,13.01
2023-05-25T05:01:22.426Z,13.02
2023-05-25T05:04:08.608Z,12.99
2023-05-25T05:06:56.115Z,13.04
2023-05-25T05:09:43.198Z,13.11
2023-05-25T05:12:28.441Z,13.10
2023-05-25T05:15:13.782Z,13.12
2023-05-25T05:17:59.484Z,13.07
2023-05-25T05:20:44.930Z,13.07
2023-05-25T05:23:29.982Z,13.06
2023-05-25T05:26:15.604Z,13.07
2023-05-25T05:29:00.863Z,13.13
2023-05-25T05:31:46.328Z,13.13
2023-05-25T05:34:31.609Z,13.17
2023-05-25T05:37:16.654Z,13.18
2023-05-25T05:40:02.072Z,13.18
2023-05-25T05:42:46.976Z,13.23
2023-05-25T05:45:32.258Z,13.21
2023-05-25T05:48:17.263Z,13.24
2023-05-25T05:51:04.448Z,13.24
2023-05-25T05:53:49.873Z,13.24
2023-05-25T05:56:35.554Z,13.24
2023-05-25T05:59:22.498Z,13.28
2023-05-25T06:02:07.788Z,13.30
2023-05-25T06:04:52.996Z,13.34
2023-05-25T06:07:38.894Z,13.37
2023-05-25T06:10:24.065Z,13.46
2023-05-25T06:13:09.490Z,13.55
2023-05-25T06:15:54.969Z,13.53
2023-05-25T06:18:40.399Z,13.58
2023-05-25T06:21:25.636Z,13.63
2023-05-25T06:24:10.905Z,13.64
2023-05-25T06:26:56.181Z,13.61
2023-05-25T06:29:41.424Z,13.61
2023-05-25T06:32:26.734Z,13.61
2023-05-25T06:35:19.595Z,13.60
2023-05-25T06:38:04.847Z,13.56
2023-05-25T06:40:49.889Z,13.61
2023-05-25T06:43:35.557Z,13.67
2023-05-25T06:46:21.656Z,13.76
2023-05-25T06:49:06.903Z,13.75
2023-05-25T06:51:52.552Z,13.76
2023-05-25T06:54:37.455Z,13.77
2023-05-25T06:57:23.713Z,13.78
2023-05-25T07:00:12.214Z,13.78
2023-05-25T07:02:57.072Z,13.84
2023-05-25T07:05:42.702Z,13.93
2023-05-25T07:08:28.236Z,14.03
2023-05-25T07:11:14.362Z,14.10
2023-05-25T07:13:59.555Z,14.12
2023-05-25T07:16:48.258Z,14.19
2023-05-25T07:19:33.646Z,14.30
2023-05-25T07:22:19.633Z,14.33
2023-05-25T07:25:05.174Z,14.41
2023-05-25T07:27:50.584Z,14.49
2023-05-25T07:30:36.533Z,14.45
2023-05-25T07:33:21.936Z,14.48
2023-05-25T07:36:07.536Z,14.51
2023-05-25T07:38:52.891Z,14.50
2023-05-25T07:41:39.019Z,14.61
2023-05-25T07:44:24.133Z,14.60
2023-05-25T07:47:11.349Z,14.68
2023-05-25T07:49:56.718Z,14.79
2023-05-25T07:52:42.457Z,14.87
2023-05-25T07:55:27.790Z,14.83
2023-05-25T07:58:13.028Z,14.78
2023-05-25T08:00:58.391Z,14.86
2023-05-25T08:03:49.723Z,14.88
2023-05-25T08:06:36.139Z,14.90
2023-05-25T08:09:21.556Z,14.92
2023-05-25T08:14:58.714Z,14.94
2023-05-25T08:17:44.433Z,14.97
2023-05-25T08:20:30.612Z,14.95
2023-05-25T08:23:16.090Z,14.97
2023-05-25T08:26:05.944Z,14.90
2023-05-25T08:28:57.058Z,14.98
2023-05-25T08:31:43.909Z,15.02
2023-05-25T08:34:29.655Z,15.06
2023-05-25T08:37:14.961Z,15.14
2023-05-25T08:40:02.457Z,15.18
2023-05-25T08:42:47.854Z,15.16
2023-05-25T08:45:35.173Z,15.25
2023-05-25T08:48:39.210Z,15.32
2023-05-25T08:51:26.421Z,15.43
2023-05-25T08:54:13.593Z,15.56
2023-05-25T08:57:38.086Z,15.65
2023-05-25T09:00:30.466Z,15.77
2023-05-25T09:03:20.085Z,15.80
2023-05-25T09:06:05.989Z,15.83
2023-05-25T09:08:51.890Z,15.93
2023-05-25T09:11:39.944Z,16.12
2023-05-25T09:14:27.507Z,16.25
2023-05-25T09:17:14.801Z,16.35
2023-05-25T09:20:00.111Z,16.49
2023-05-25T09:22:47.202Z,16.51
2023-05-25T09:25:33.800Z,16.57
2023-05-25T09:28:26.869Z,16.68
2023-05-25T09:31:13.340Z,16.70
2023-05-25T09:34:00.388Z,16.65
2023-05-25T09:36:46.266Z,16.73
2023-05-25T09:39:31.846Z,16.78
2023-05-25T09:42:17.916Z,16.81
2023-05-25T09:45:05.347Z,16.97
2023-05-25T09:47:55.926Z,17.05
2023-05-25T09:50:41.136Z,17.13
2023-05-25T09:53:26.862Z,17.27
2023-05-25T09:56:12.712Z,17.34
2023-05-25T09:58:58.466Z,17.29
2023-05-25T10:01:46.654Z,17.19
2023-05-25T10:04:31.978Z,17.07
2023-05-25T10:07:17.640Z,16.99
2023-05-25T10:10:07.667Z,17.09
2023-05-25T10:12:53.778Z,17.20
2023-05-25T10:15:43.154Z,17.12
2023-05-25T10:18:32.882Z,17.18
2023-05-25T10:21:20.550Z,17.23
2023-05-25T10:24:24.937Z,17.32
2023-05-25T10:27:26.262Z,17.38
2023-05-25T10:30:14.471Z,17.39
2023-05-25T10:33:01.813Z,17.48
2023-05-25T10:36:02.270Z,17.45
2023-05-25T10:38:55.471Z,17.42
2023-05-25T10:41:42.090Z,17.44
2023-05-25T10:44:29.165Z,17.54
2023-05-25T10:47:16.239Z,17.63
2023-05-25T10:50:03.116Z,17.62
2023-05-25T10:53:02.067Z,17.65
2023-05-25T10:55:47.347Z,17.68
2023-05-25T10:58:34.155Z,17.79
2023-05-25T11:01:19.758Z,17.82
2023-05-25T11:04:11.252Z,17.86
2023-05-25T11:07:03.092Z,17.88
2023-05-25T11:09:58.901Z,17.94
2023-05-25T11:12:46.576Z,18.06
2023-05-25T11:15:31.736Z,18.04
2023-05-25T11:18:17.100Z,18.09
2023-05-25T11:21:29.004Z,18.12
2023-05-25T11:24:16.233Z,18.19
2023-05-25T11:27:01.938Z,18.35
2023-05-25T11:29:51.087Z,18.39
2023-05-25T11:32:39.897Z,18.51
2023-05-25T11:35:26.569Z,18.45
2023-05-25T11:38:12.700Z,18.32
2023-05-25T11:40:58.181Z,18.39
2023-05-25T11:43:45.881Z,18.49
2023-05-25T11:46:33.098Z,18.57
2023-05-25T11:49:21.753Z,18.51
2023-05-25T11:52:07.509Z,18.52
2023-05-25T11:54:53.329Z,18.61
2023-05-25T11:57:39.251Z,18.57
2023-05-25T12:00:27.220Z,18.52
2023-05-25T12:03:30.202Z,18.37
2023-05-25T12:06:28.003Z,18.40
2023-05-25T12:09:13.150Z,18.54
2023-05-25T12:11:59.008Z,18.58
2023-05-25T12:14:51.899Z,18.54
2023-05-25T12:17:41.363Z,18.69
2023-05-25T12:20:27.347Z,18.84
2023-05-25T12:23:13.047Z,18.84
2023-05-25T12:26:13.878Z,18.83
2023-05-25T12:29:03.911Z,18.91
2023-05-25T12:31:49.269Z,19.10
2023-05-25T12:34:34.885Z,19.22
2023-05-25T12:37:22.329Z,19.32
2023-05-25T12:40:18.654Z,19.43
2023-05-25T12:43:04.012Z,19.42
2023-05-25T12:45:49.387Z,19.49
2023-05-25T12:48:34.729Z,19.39
2023-05-25T12:51:20.135Z,19.35
2023-05-25T12:54:05.733Z,19.35
2023-05-25T12:56:55.632Z,19.32
2023-05-25T12:59:46.258Z,19.26
2023-05-25T13:02:32.379Z,19.34
2023-05-25T13:05:28.261Z,19.60
2023-05-25T13:08:13.747Z,19.79
2023-05-25T13:10:58.903Z,19.83
2023-05-25T13:13:44.981Z,19.77
2023-05-25T13:16:33.718Z,19.78
2023-05-25T13:19:20.458Z,19.59
2023-05-25T13:22:05.657Z,19.62
2023-05-25T13:24:50.997Z,19.71
2023-05-25T13:27:37.980Z,19.63
2023-05-25T13:30:23.144Z,19.59
2023-05-25T13:33:08.512Z,19.56
2023-05-25T13:36:07.950Z,19.48
2023-05-25T13:38:53.395Z,19.38
2023-05-25T13:41:38.635Z,19.38
2023-05-25T13:44:23.933Z,19.48
2023-05-25T13:47:09.325Z,19.52
2023-05-25T13:49:54.693Z,19.67
2023-05-25T13:52:39.842Z,19.85
2023-05-25T13:55:25.204Z,19.97
2023-05-25T13:58:10.624Z,20.09
2023-05-25T14:00:56.064Z,20.14
2023-05-25T14:03:41.714Z,20.13
2023-05-25T14:06:27.076Z,20.07
2023-05-25T14:09:13.577Z,19.92
2023-05-25T14:11:59.093Z,19.99
2023-05-25T14:14:44.387Z,19.98
2023-05-25T14:17:29.821Z,20.09
2023-05-25T14:20:25.201Z,20.15
2023-05-25T14:23:12.759Z,20.23
2023-05-25T14:25:59.699Z,20.18
2023-05-25T14:28:44.929Z,20.06
2023-05-25T14:31:30.248Z,20.06
2023-05-25T14:34:15.495Z,19.96
2023-05-25T14:37:00.907Z,20.04
2023-05-25T14:39:46.120Z,20.20
2023-05-25T14:42:31.333Z,20.34
2023-05-25T14:45:16.579Z,20.68
2023-05-25T14:48:15.313Z,20.68
2023-05-25T14:51:02.836Z,20.55
2023-05-25T14:53:48.263Z,20.67
2023-05-25T14:56:33.943Z,20.83
2023-05-25T14:59:19.493Z,20.66
2023-05-25T15:02:05.175Z,20.50
2023-05-25T15:04:50.644Z,20.41
2023-05-25T15:07:35.972Z,20.37
2023-05-25T15:10:21.254Z,20.38
2023-05-25T15:13:06.456Z,20.21
2023-05-25T15:15:57.144Z,20.14
2023-05-25T15:18:43.571Z,19.98
2023-05-25T15:21:28.597Z,20.01
2023-05-25T15:24:16.698Z,19.80
2023-05-25T15:27:01.896Z,19.60
2023-05-25T15:29:47.247Z,19.53
2023-05-25T15:32:32.821Z,19.63
2023-05-25T15:35:18.251Z,19.74
2023-05-25T15:38:03.569Z,19.60
2023-05-25T15:40:48.893Z,19.24
2023-05-25T15:43:34.052Z,19.07
2023-05-25T15:46:19.496Z,19.04
2023-05-25T15:49:10.846Z,18.91
2023-05-25T15:51:56.371Z,18.87
2023-05-25T15:54:41.789Z,18.71
2023-05-25T15:57:27.161Z,18.62
2023-05-25T16:00:12.898Z,18.29
2023-05-25T16:02:58.357Z,18.17
2023-05-25T16:05:44.021Z,18.34
2023-05-25T16:08:29.678Z,18.40
2023-05-25T16:11:15.118Z,18.22
2023-05-25T16:14:00.490Z,18.27
2023-05-25T16:16:46.048Z,18.32
2023-05-25T16:19:31.232Z,18.23
2023-05-25T16:22:16.433Z,18.18
2023-05-25T16:25:01.653Z,18.20
2023-05-25T16:27:46.911Z,18.06
2023-05-25T16:30:32.346Z,18.04
2023-05-25T16:33:17.421Z,18.16
2023-05-25T16:36:02.694Z,18.26
2023-05-25T16:38:47.920Z,18.24
2023-05-25T16:41:33.629Z,18.17
2023-05-25T16:44:18.764Z,18.11
2023-05-25T16:47:04.135Z,18.08
2023-05-25T16:49:49.354Z,17.90
2023-05-25T16:52:34.602Z,17.75
2023-05-25T16:55:19.846Z,17.67
2023-05-25T16:58:05.133Z,17.63
2023-05-25T17:00:51.672Z,17.67
2023-05-25T17:03:37.338Z,17.43
2023-05-25T17:06:22.782Z,17.37
2023-05-25T17:09:09.151Z,17.39
2023-05-25T17:11:54.282Z,17.41
2023-05-25T17:14:39.594Z,17.28
2023-05-25T17:17:28.090Z,17.23
2023-05-25T17:20:13.357Z,16.99
2023-05-25T17:22:58.887Z,16.81
2023-05-25T17:25:45.025Z,16.77
2023-05-25T17:28:32.844Z,16.69
2023-05-25T17:31:18.424Z,16.61
2023-05-25T17:34:03.981Z,16.66
2023-05-25T17:36:48.952Z,16.53
2023-05-25T17:39:34.293Z,16.47
2023-05-25T17:42:19.708Z,16.44
2023-05-25T17:45:10.663Z,16.34
2023-05-25T17:47:56.353Z,16.24
2023-05-25T17:50:41.768Z,16.07
2023-05-25T17:53:27.196Z,15.95
2023-05-25T17:56:12.843Z,15.81
2023-05-25T17:58:57.896Z,15.69
2023-05-25T18:01:43.511Z,15.52
2023-05-25T18:04:28.994Z,15.43
2023-05-25T18:07:14.434Z,15.47
2023-05-25T18:09:59.986Z,15.41
2023-05-25T18:12:49.232Z,15.26
2023-05-25T18:15:34.698Z,15.21
2023-05-25T18:18:23.237Z,15.26
2023-05-25T18:21:08.474Z,15.30
2023-05-25T18:23:53.868Z,15.21
2023-05-25T18:26:41.668Z,15.17
2023-05-25T18:29:26.931Z,15.13
2023-05-25T18:32:12.267Z,15.07
2023-05-25T18:34:57.826Z,15.03
2023-05-25T18:37:43.146Z,14.98
2023-05-25T18:40:28.201Z,15.02
2023-05-25T18:43:13.593Z,15.07
2023-05-25T18:45:59.290Z,15.04
2023-05-25T18:48:44.594Z,15.05
2023-05-25T18:51:29.708Z,15.05
2023-05-25T18:54:15.478Z,15.03
2023-05-25T18:57:01.504Z,15.00
2023-05-25T18:59:46.933Z,14.91
2023-05-25T19:02:32.010Z,14.89
2023-05-25T19:05:18.566Z,14.84
2023-05-25T19:08:04.137Z,14.82
2023-05-25T19:10:49.478Z,14.79
2023-05-25T19:13:34.627Z,14.81
2023-05-25T19:16:19.867Z,14.85
2023-05-25T19:19:05.130Z,14.74
2023-05-25T19:21:50.912Z,14.72
2023-05-25T19:24:41.028Z,14.73
2023-05-25T19:27:27.648Z,14.76
2023-05-25T19:30:13.139Z,14.71
2023-05-25T19:32:58.656Z,14.63
2023-05-25T19:35:44.159Z,14.54
2023-05-25T19:38:40.239Z,14.48
2023-05-25T19:41:26.234Z,14.41
2023-05-25T19:44:11.660Z,14.33
2023-05-25T19:46:56.814Z,14.38
2023-05-25T19:49:42.828Z,14.41
2023-05-25T19:52:28.326Z,14.45
2023-05-25T19:55:13.728Z,14.46
2023-05-25T19:57:59.041Z,14.47
2023-05-25T20:00:44.588Z,14.51
2023-05-25T20:03:30.234Z,14.62
2023-05-25T20:06:15.840Z,14.67
2023-05-25T20:09:01.203Z,14.72
2023-05-25T20:11:46.459Z,14.73
2023-05-25T20:14:33.673Z,14.66
2023-05-25T20:17:19.044Z,14.75
2023-05-25T20:20:05.362Z,14.81
2023-05-25T20:22:50.843Z,14.85
2023-05-25T20:25:36.203Z,14.86
2023-05-25T20:28:21.303Z,14.83
2023-05-25T20:31:06.803Z,14.81
2023-05-25T20:33:51.998Z,14.81
2023-05-25T20:36:37.480Z,14.81
2023-05-25T20:39:22.618Z,14.79
2023-05-25T20:42:07.909Z,14.78
2023-05-25T20:44:53.199Z,14.78
2023-05-25T20:47:41.730Z,14.75
2023-05-25T20:50:27.706Z,14.82
2023-05-25T20:53:12.687Z,14.88
2023-05-25T20:55:58.480Z,14.88
2023-05-25T20:58:43.894Z,14.82
2023-05-25T21:01:29.665Z,14.82
2023-05-25T21:04:15.222Z,14.82
2023-05-25T21:07:00.824Z,14.81
2023-05-25T21:09:45.983Z,14.83
2023-05-25T21:12:31.572Z,14.79
2023-05-25T21:15:16.899Z,14.83
2023-05-25T21:18:03.651Z,14.86
2023-05-25T21:20:49.304Z,14.93
2023-05-25T21:23:34.663Z,15.00
2023-05-25T21:26:21.388Z,15.04
2023-05-25T21:29:07.771Z,15.05
2023-05-25T21:31:53.314Z,15.08
2023-05-25T21:34:38.527Z,15.09
2023-05-25T21:37:24.692Z,15.09
2023-05-25T21:40:10.492Z,15.00
2023-05-25T21:42:56.062Z,15.01
2023-05-25T21:45:41.559Z,15.05
2023-05-25T21:48:26.878Z,14.99
2023-05-25T21:51:12.190Z,14.88
2023-05-25T21:53:58.842Z,14.91
2023-05-25T21:56:43.981Z,14.96
2023-05-25T21:59:29.456Z,14.98
2023-05-25T22:02:14.809Z,14.91
2023-05-25T22:05:00.082Z,14.80
2023-05-25T22:07:45.954Z,14.72
2023-05-25T22:10:33.614Z,14.57
2023-05-25T22:13:18.890Z,14.46
2023-05-25T22:16:04.120Z,14.44
2023-05-25T22:18:49.345Z,14.36
2023-05-25T22:21:34.754Z,14.39
2023-05-25T22:24:19.998Z,14.35
2023-05-25T22:27:06.638Z,14.20
2023-05-25T22:29:51.818Z,14.09
2023-05-25T22:32:37.082Z,13.92
2023-05-25T22:35:22.205Z,13.83
2023-05-25T22:38:07.483Z,13.89
2023-05-25T22:40:52.850Z,13.86
2023-05-25T22:43:38.015Z,13.83
2023-05-25T22:46:23.431Z,13.93
2023-05-25T22:49:08.637Z,13.95
2023-05-25T22:51:54.161Z,14.01
2023-05-25T22:54:39.881Z,14.08
2023-05-25T22:57:25.458Z,14.16
2023-05-25T23:00:11.269Z,14.23
2023-05-25T23:02:57.600Z,14.17
2023-05-25T23:05:42.812Z,14.20
2023-05-25T23:08:28.225Z,14.08
2023-05-25T23:11:13.468Z,13.91
2023-05-25T23:14:00.733Z,13.85
2023-05-25T23:16:48.658Z,13.91
2023-05-25T23:19:34.252Z,13.95
2023-05-25T23:22:19.675Z,13.96
2023-05-25T23:25:05.513Z,14.03
2023-05-25T23:27:50.699Z,14.07
2023-05-25T23:30:36.005Z,14.12
2023-05-25T23:33:22.126Z,14.10
2023-05-25T23:36:07.449Z,14.03
2023-05-25T23:38:52.999Z,14.01
2023-05-25T23:41:38.156Z,13.97
2023-05-25T23:44:23.517Z,13.93
2023-05-25T23:47:09.509Z,13.87
2023-05-25T23:49:54.530Z,13.86
2023-05-25T23:52:40.153Z,13.98
2023-05-25T23:55:25.136Z,13.94
2023-05-25T23:58:10.543Z,13.98
